sensor_id;sensor_type;location;lat;lon;timestamp;pressure;altitude;pressure_sealevel;temperature;humidity
50636;BME280;36598;46.054;11.130;2023-01-13T00:01:58;99690.06;;;4.36;70.62
50636;BME280;36598;46.054;11.130;2023-01-13T00:04:24;99693.16;;;4.34;70.65
50636;BME280;36598;46.054;11.130;2023-01-13T00:06:49;99699.94;;;4.21;70.97
50636;BME280;36598;46.054;11.130;2023-01-13T00:09:14;99687.69;;;4.34;70.29
50636;BME280;36598;46.054;11.130;2023-01-13T00:11:40;99689.19;;;4.51;69.82
50636;BME280;36598;46.054;11.130;2023-01-13T00:14:05;99682.56;;;4.33;70.41
50636;BME280;36598;46.054;11.130;2023-01-13T00:16:30;99682.25;;;4.18;71.38
50636;BME280;36598;46.054;11.130;2023-01-13T00:18:56;99684.50;;;4.32;70.39
50636;BME280;36598;46.054;11.130;2023-01-13T00:21:22;99687.94;;;4.10;71.03
50636;BME280;36598;46.054;11.130;2023-01-13T00:23:48;99692.22;;;4.07;71.25
50636;BME280;36598;46.054;11.130;2023-01-13T00:26:15;99694.03;;;3.84;72.02
50636;BME280;36598;46.054;11.130;2023-01-13T00:28:41;99681.31;;;3.91;71.87
50636;BME280;36598;46.054;11.130;2023-01-13T00:31:07;99676.72;;;3.95;71.54
50636;BME280;36598;46.054;11.130;2023-01-13T00:33:32;99681.91;;;4.00;71.02
50636;BME280;36598;46.054;11.130;2023-01-13T00:35:58;99677.91;;;3.98;71.61
50636;BME280;36598;46.054;11.130;2023-01-13T00:38:24;99673.69;;;4.00;71.36
50636;BME280;36598;46.054;11.130;2023-01-13T00:40:56;99681.81;;;3.97;71.85
50636;BME280;36598;46.054;11.130;2023-01-13T00:43:21;99680.09;;;4.08;71.14
50636;BME280;36598;46.054;11.130;2023-01-13T00:45:46;99686.59;;;4.19;70.84
50636;BME280;36598;46.054;11.130;2023-01-13T00:48:12;99684.22;;;4.18;70.98
50636;BME280;36598;46.054;11.130;2023-01-13T00:50:37;99680.41;;;4.03;71.64
50636;BME280;36598;46.054;11.130;2023-01-13T00:53:02;99686.59;;;4.00;72.16
50636;BME280;36598;46.054;11.130;2023-01-13T00:55:31;99683.34;;;4.14;71.81
50636;BME280;36598;46.054;11.130;2023-01-13T00:57:57;99684.53;;;3.78;72.77
50636;BME280;36598;46.054;11.130;2023-01-13T01:00:27;99681.94;;;3.85;73.12
50636;BME280;36598;46.054;11.130;2023-01-13T01:02:53;99675.41;;;4.09;71.93
50636;BME280;36598;46.054;11.130;2023-01-13T01:05:18;99672.59;;;4.05;71.90
50636;BME280;36598;46.054;11.130;2023-01-13T01:07:43;99674.56;;;4.05;72.00
50636;BME280;36598;46.054;11.130;2023-01-13T01:10:09;99677.19;;;3.82;72.62
50636;BME280;36598;46.054;11.130;2023-01-13T01:12:34;99673.91;;;4.11;72.00
50636;BME280;36598;46.054;11.130;2023-01-13T01:15:00;99667.78;;;4.18;71.13
50636;BME280;36598;46.054;11.130;2023-01-13T01:17:25;99672.84;;;4.16;71.57
50636;BME280;36598;46.054;11.130;2023-01-13T01:19:51;99660.00;;;4.20;71.01
50636;BME280;36598;46.054;11.130;2023-01-13T01:22:17;99662.69;;;4.16;71.27
50636;BME280;36598;46.054;11.130;2023-01-13T01:24:42;99659.50;;;4.34;70.41
50636;BME280;36598;46.054;11.130;2023-01-13T01:27:07;99662.03;;;4.04;71.58
50636;BME280;36598;46.054;11.130;2023-01-13T01:29:33;99665.09;;;3.83;72.29
50636;BME280;36598;46.054;11.130;2023-01-13T01:31:58;99651.94;;;4.08;72.03
50636;BME280;36598;46.054;11.130;2023-01-13T01:34:23;99651.81;;;3.85;72.52
50636;BME280;36598;46.054;11.130;2023-01-13T01:36:49;99633.84;;;4.03;71.79
50636;BME280;36598;46.054;11.130;2023-01-13T01:39:14;99627.16;;;4.20;71.21
50636;BME280;36598;46.054;11.130;2023-01-13T01:41:39;99636.59;;;4.03;71.98
50636;BME280;36598;46.054;11.130;2023-01-13T01:47:05;99631.69;;;4.12;71.37
50636;BME280;36598;46.054;11.130;2023-01-13T01:49:31;99626.31;;;3.81;72.41
50636;BME280;36598;46.054;11.130;2023-01-13T01:51:59;99627.91;;;4.01;71.83
50636;BME280;36598;46.054;11.130;2023-01-13T01:54:27;99624.75;;;4.18;71.02
50636;BME280;36598;46.054;11.130;2023-01-13T01:56:56;99614.09;;;4.13;71.14
50636;BME280;36598;46.054;11.130;2023-01-13T01:59:22;99611.13;;;4.22;71.06
50636;BME280;36598;46.054;11.130;2023-01-13T02:01:47;99607.91;;;4.16;71.54
50636;BME280;36598;46.054;11.130;2023-01-13T02:04:14;99605.38;;;4.08;70.89
50636;BME280;36598;46.054;11.130;2023-01-13T02:06:41;99606.94;;;4.28;70.49
50636;BME280;36598;46.054;11.130;2023-01-13T02:09:06;99599.69;;;3.97;71.73
50636;BME280;36598;46.054;11.130;2023-01-13T02:11:33;99596.06;;;3.93;72.19
50636;BME280;36598;46.054;11.130;2023-01-13T02:14:17;99592.53;;;3.92;71.72
50636;BME280;36598;46.054;11.130;2023-01-13T02:16:47;99588.50;;;4.06;71.82
50636;BME280;36598;46.054;11.130;2023-01-13T02:24:31;99591.91;;;3.99;71.99
50636;BME280;36598;46.054;11.130;2023-01-13T02:30:06;99578.63;;;4.20;70.89
50636;BME280;36598;46.054;11.130;2023-01-13T02:38:41;99571.94;;;3.79;72.77
50636;BME280;36598;46.054;11.130;2023-01-13T02:41:15;99579.50;;;3.47;73.88
50636;BME280;36598;46.054;11.130;2023-01-13T02:44:04;99574.88;;;3.51;73.75
50636;BME280;36598;46.054;11.130;2023-01-13T02:46:31;99573.84;;;3.40;74.29
50636;BME280;36598;46.054;11.130;2023-01-13T02:49:00;99579.66;;;3.73;73.04
50636;BME280;36598;46.054;11.130;2023-01-13T02:51:27;99568.41;;;3.79;72.60
50636;BME280;36598;46.054;11.130;2023-01-13T02:53:56;99563.53;;;3.68;73.31
50636;BME280;36598;46.054;11.130;2023-01-13T02:56:23;99563.91;;;3.51;73.77
50636;BME280;36598;46.054;11.130;2023-01-13T02:58:50;99566.41;;;3.56;73.52
50636;BME280;36598;46.054;11.130;2023-01-13T03:01:17;99564.78;;;3.36;74.52
50636;BME280;36598;46.054;11.130;2023-01-13T03:03:42;99568.88;;;3.26;74.66
50636;BME280;36598;46.054;11.130;2023-01-13T03:08:59;99558.63;;;3.78;73.09
50636;BME280;36598;46.054;11.130;2023-01-13T03:11:26;99559.94;;;3.64;73.11
50636;BME280;36598;46.054;11.130;2023-01-13T03:26:15;99562.66;;;2.94;74.85
50636;BME280;36598;46.054;11.130;2023-01-13T03:28:45;99560.38;;;2.80;77.18
50636;BME280;36598;46.054;11.130;2023-01-13T03:31:15;99570.16;;;2.97;75.81
50636;BME280;36598;46.054;11.130;2023-01-13T03:33:43;99554.72;;;3.05;75.25
50636;BME280;36598;46.054;11.130;2023-01-13T03:36:09;99559.31;;;2.85;76.11
50636;BME280;36598;46.054;11.130;2023-01-13T03:38:40;99552.22;;;3.15;75.39
50636;BME280;36598;46.054;11.130;2023-01-13T03:41:28;99556.41;;;3.29;74.61
50636;BME280;36598;46.054;11.130;2023-01-13T03:43:59;99549.53;;;3.35;74.39
50636;BME280;36598;46.054;11.130;2023-01-13T03:49:33;99551.50;;;3.18;74.35
50636;BME280;36598;46.054;11.130;2023-01-13T03:52:02;99555.97;;;3.26;73.99
50636;BME280;36598;46.054;11.130;2023-01-13T03:54:29;99553.50;;;2.70;75.46
50636;BME280;36598;46.054;11.130;2023-01-13T03:56:58;99551.03;;;2.81;76.70
50636;BME280;36598;46.054;11.130;2023-01-13T03:59:25;99552.28;;;3.19;74.52
50636;BME280;36598;46.054;11.130;2023-01-13T04:01:56;99542.31;;;3.26;74.11
50636;BME280;36598;46.054;11.130;2023-01-13T04:04:25;99545.75;;;3.23;74.20
50636;BME280;36598;46.054;11.130;2023-01-13T04:06:55;99553.72;;;3.48;73.62
50636;BME280;36598;46.054;11.130;2023-01-13T04:09:36;99549.53;;;3.35;73.99
50636;BME280;36598;46.054;11.130;2023-01-13T04:14:36;99561.31;;;3.04;75.17
50636;BME280;36598;46.054;11.130;2023-01-13T04:17:02;99569.88;;;3.02;74.72
50636;BME280;36598;46.054;11.130;2023-01-13T04:19:27;99559.59;;;3.31;73.81
50636;BME280;36598;46.054;11.130;2023-01-13T04:21:53;99556.81;;;2.95;75.09
50636;BME280;36598;46.054;11.130;2023-01-13T04:24:18;99554.91;;;2.64;75.84
50636;BME280;36598;46.054;11.130;2023-01-13T04:26:43;99550.63;;;3.14;74.52
50636;BME280;36598;46.054;11.130;2023-01-13T04:29:08;99545.72;;;3.04;74.08
50636;BME280;36598;46.054;11.130;2023-01-13T04:31:34;99561.56;;;3.14;73.84
50636;BME280;36598;46.054;11.130;2023-01-13T04:33:59;99567.31;;;2.78;75.97
50636;BME280;36598;46.054;11.130;2023-01-13T04:36:24;99554.78;;;3.08;74.62
50636;BME280;36598;46.054;11.130;2023-01-13T04:38:52;99557.97;;;3.10;74.69
50636;BME280;36598;46.054;11.130;2023-01-13T04:41:17;99564.22;;;3.11;74.35
50636;BME280;36598;46.054;11.130;2023-01-13T04:43:42;99569.59;;;3.07;74.24
50636;BME280;36598;46.054;11.130;2023-01-13T04:46:07;99572.03;;;3.28;73.46
50636;BME280;36598;46.054;11.130;2023-01-13T04:48:33;99577.13;;;3.30;73.54
50636;BME280;36598;46.054;11.130;2023-01-13T04:50:58;99577.88;;;3.26;74.23
50636;BME280;36598;46.054;11.130;2023-01-13T04:53:23;99581.63;;;3.38;73.19
50636;BME280;36598;46.054;11.130;2023-01-13T04:55:48;99577.78;;;3.23;73.39
50636;BME280;36598;46.054;11.130;2023-01-13T04:58:14;99585.09;;;3.19;73.48
50636;BME280;36598;46.054;11.130;2023-01-13T05:03:14;99576.13;;;3.18;74.05
50636;BME280;36598;46.054;11.130;2023-01-13T05:05:41;99580.16;;;3.24;73.18
50636;BME280;36598;46.054;11.130;2023-01-13T05:08:07;99565.59;;;3.20;73.12
50636;BME280;36598;46.054;11.130;2023-01-13T05:10:33;99572.97;;;3.00;74.14
50636;BME280;36598;46.054;11.130;2023-01-13T05:12:58;99569.09;;;3.01;74.81
50636;BME280;36598;46.054;11.130;2023-01-13T05:15:41;99569.50;;;3.19;74.40
50636;BME280;36598;46.054;11.130;2023-01-13T05:18:26;99574.72;;;3.09;73.61
50636;BME280;36598;46.054;11.130;2023-01-13T05:20:52;99570.06;;;2.78;75.61
50636;BME280;36598;46.054;11.130;2023-01-13T05:23:17;99571.81;;;3.01;74.55
50636;BME280;36598;46.054;11.130;2023-01-13T05:26:01;99574.72;;;2.93;74.58
50636;BME280;36598;46.054;11.130;2023-01-13T05:28:29;99571.44;;;3.03;74.26
50636;BME280;36598;46.054;11.130;2023-01-13T05:30:55;99569.53;;;2.88;74.56
50636;BME280;36598;46.054;11.130;2023-01-13T05:33:20;99564.41;;;3.02;74.73
50636;BME280;36598;46.054;11.130;2023-01-13T05:35:46;99567.31;;;3.09;74.87
50636;BME280;36598;46.054;11.130;2023-01-13T05:38:12;99579.06;;;3.29;74.21
50636;BME280;36598;46.054;11.130;2023-01-13T05:40:37;99581.78;;;3.10;74.41
50636;BME280;36598;46.054;11.130;2023-01-13T05:43:22;99578.34;;;2.97;74.60
50636;BME280;36598;46.054;11.130;2023-01-13T05:48:17;99574.97;;;3.19;74.54
50636;BME280;36598;46.054;11.130;2023-01-13T05:50:42;99574.88;;;3.16;74.14
50636;BME280;36598;46.054;11.130;2023-01-13T05:53:08;99580.00;;;3.01;75.02
50636;BME280;36598;46.054;11.130;2023-01-13T05:55:33;99568.88;;;3.26;74.06
50636;BME280;36598;46.054;11.130;2023-01-13T05:57:59;99563.53;;;3.33;73.55
50636;BME280;36598;46.054;11.130;2023-01-13T06:00:24;99570.03;;;3.09;74.36
50636;BME280;36598;46.054;11.130;2023-01-13T06:02:50;99565.16;;;3.34;74.17
50636;BME280;36598;46.054;11.130;2023-01-13T06:05:15;99563.00;;;3.43;73.57
50636;BME280;36598;46.054;11.130;2023-01-13T06:07:40;99561.06;;;3.44;73.39
50636;BME280;36598;46.054;11.130;2023-01-13T06:10:06;99550.31;;;3.35;73.70
50636;BME280;36598;46.054;11.130;2023-01-13T06:12:31;99560.22;;;3.24;73.94
50636;BME280;36598;46.054;11.130;2023-01-13T06:14:57;99563.63;;;3.37;73.45
50636;BME280;36598;46.054;11.130;2023-01-13T06:17:22;99561.16;;;3.32;73.19
50636;BME280;36598;46.054;11.130;2023-01-13T06:19:47;99558.44;;;3.51;72.89
50636;BME280;36598;46.054;11.130;2023-01-13T06:22:28;99570.25;;;2.85;74.75
50636;BME280;36598;46.054;11.130;2023-01-13T06:24:59;99572.25;;;3.04;74.79
50636;BME280;36598;46.054;11.130;2023-01-13T06:27:24;99580.44;;;3.19;74.53
50636;BME280;36598;46.054;11.130;2023-01-13T06:29:50;99569.38;;;2.81;75.17
50636;BME280;36598;46.054;11.130;2023-01-13T06:32:16;99571.41;;;2.84;74.91
50636;BME280;36598;46.054;11.130;2023-01-13T06:34:43;99574.81;;;2.81;74.94
50636;BME280;36598;46.054;11.130;2023-01-13T06:37:10;99577.28;;;3.01;74.63
50636;BME280;36598;46.054;11.130;2023-01-13T06:39:36;99581.66;;;3.22;74.05
50636;BME280;36598;46.054;11.130;2023-01-13T06:42:02;99586.94;;;3.31;73.01
50636;BME280;36598;46.054;11.130;2023-01-13T06:44:46;99575.34;;;3.37;72.80
50636;BME280;36598;46.054;11.130;2023-01-13T06:47:12;99573.56;;;3.25;73.25
50636;BME280;36598;46.054;11.130;2023-01-13T06:49:38;99577.28;;;3.17;73.33
50636;BME280;36598;46.054;11.130;2023-01-13T06:52:03;99572.78;;;3.44;72.94
50636;BME280;36598;46.054;11.130;2023-01-13T06:54:28;99577.97;;;3.49;72.37
50636;BME280;36598;46.054;11.130;2023-01-13T06:56:54;99583.34;;;3.26;72.16
50636;BME280;36598;46.054;11.130;2023-01-13T06:59:19;99592.44;;;3.50;72.32
50636;BME280;36598;46.054;11.130;2023-01-13T07:01:44;99596.63;;;3.44;72.67
50636;BME280;36598;46.054;11.130;2023-01-13T07:04:09;99587.88;;;3.38;72.49
50636;BME280;36598;46.054;11.130;2023-01-13T07:06:35;99592.72;;;3.45;72.48
50636;BME280;36598;46.054;11.130;2023-01-13T07:09:00;99599.63;;;3.39;73.18
50636;BME280;36598;46.054;11.130;2023-01-13T07:11:26;99600.09;;;3.60;71.89
50636;BME280;36598;46.054;11.130;2023-01-13T07:13:51;99600.22;;;3.67;71.75
50636;BME280;36598;46.054;11.130;2023-01-13T07:16:35;99601.69;;;3.61;72.34
50636;BME280;36598;46.054;11.130;2023-01-13T07:19:00;99604.97;;;3.51;71.95
50636;BME280;36598;46.054;11.130;2023-01-13T07:21:25;99611.56;;;3.31;73.21
50636;BME280;36598;46.054;11.130;2023-01-13T07:23:51;99619.06;;;3.02;74.14
50636;BME280;36598;46.054;11.130;2023-01-13T07:26:16;99611.06;;;3.09;74.89
50636;BME280;36598;46.054;11.130;2023-01-13T07:28:41;99609.56;;;2.96;75.31
50636;BME280;36598;46.054;11.130;2023-01-13T07:31:14;99605.88;;;3.39;73.37
50636;BME280;36598;46.054;11.130;2023-01-13T07:33:40;99605.41;;;3.53;72.56
50636;BME280;36598;46.054;11.130;2023-01-13T07:36:05;99604.41;;;3.61;72.21
50636;BME280;36598;46.054;11.130;2023-01-13T07:38:31;99612.13;;;3.75;71.73
50636;BME280;36598;46.054;11.130;2023-01-13T07:40:56;99600.97;;;3.84;71.22
50636;BME280;36598;46.054;11.130;2023-01-13T07:43:22;99600.03;;;3.95;70.79
50636;BME280;36598;46.054;11.130;2023-01-13T07:46:00;99595.50;;;4.03;70.40
50636;BME280;36598;46.054;11.130;2023-01-13T07:48:27;99597.66;;;4.13;69.80
50636;BME280;36598;46.054;11.130;2023-01-13T07:50:52;99594.69;;;4.22;69.65
50636;BME280;36598;46.054;11.130;2023-01-13T07:53:18;99591.25;;;4.25;69.28
50636;BME280;36598;46.054;11.130;2023-01-13T07:55:43;99590.06;;;4.45;68.92
50636;BME280;36598;46.054;11.130;2023-01-13T07:58:09;99600.19;;;4.45;68.31
50636;BME280;36598;46.054;11.130;2023-01-13T08:00:35;99609.25;;;4.07;69.56
50636;BME280;36598;46.054;11.130;2023-01-13T08:03:00;99612.38;;;3.50;71.53
50636;BME280;36598;46.054;11.130;2023-01-13T08:05:26;99612.38;;;3.86;71.30
50636;BME280;36598;46.054;11.130;2023-01-13T08:07:51;99611.84;;;4.38;69.12
50636;BME280;36598;46.054;11.130;2023-01-13T08:10:16;99605.75;;;4.48;69.13
50636;BME280;36598;46.054;11.130;2023-01-13T08:12:42;99611.78;;;4.15;69.64
50636;BME280;36598;46.054;11.130;2023-01-13T08:15:25;99600.19;;;4.45;68.54
50636;BME280;36598;46.054;11.130;2023-01-13T08:17:51;99602.06;;;4.60;68.05
50636;BME280;36598;46.054;11.130;2023-01-13T08:20:16;99601.63;;;4.81;67.13
50636;BME280;36598;46.054;11.130;2023-01-13T08:22:41;99596.56;;;4.37;69.04
50636;BME280;36598;46.054;11.130;2023-01-13T08:25:08;99605.91;;;4.36;69.24
50636;BME280;36598;46.054;11.130;2023-01-13T08:27:33;99604.13;;;4.90;67.89
50636;BME280;36598;46.054;11.130;2023-01-13T08:29:59;99602.78;;;5.03;67.00
50636;BME280;36598;46.054;11.130;2023-01-13T08:32:24;99600.59;;;4.89;67.20
50636;BME280;36598;46.054;11.130;2023-01-13T08:34:49;99605.00;;;5.47;65.05
50636;BME280;36598;46.054;11.130;2023-01-13T08:37:14;99596.44;;;5.52;64.98
50636;BME280;36598;46.054;11.130;2023-01-13T08:39:40;99598.34;;;5.48;65.57
50636;BME280;36598;46.054;11.130;2023-01-13T08:42:05;99592.00;;;5.70;64.18
50636;BME280;36598;46.054;11.130;2023-01-13T08:44:30;99587.56;;;5.62;64.21
50636;BME280;36598;46.054;11.130;2023-01-13T08:46:56;99587.00;;;5.49;65.00
50636;BME280;36598;46.054;11.130;2023-01-13T08:49:22;99597.50;;;5.70;64.06
50636;BME280;36598;46.054;11.130;2023-01-13T08:51:48;99597.81;;;5.65;64.16
50636;BME280;36598;46.054;11.130;2023-01-13T08:54:14;99594.78;;;5.44;64.97
50636;BME280;36598;46.054;11.130;2023-01-13T08:56:40;99602.75;;;5.52;64.63
50636;BME280;36598;46.054;11.130;2023-01-13T08:59:07;99596.56;;;5.33;65.02
50636;BME280;36598;46.054;11.130;2023-01-13T09:01:34;99600.34;;;4.98;65.99
50636;BME280;36598;46.054;11.130;2023-01-13T09:03:59;99594.78;;;5.44;64.78
50636;BME280;36598;46.054;11.130;2023-01-13T09:06:24;99601.34;;;5.66;64.02
50636;BME280;36598;46.054;11.130;2023-01-13T09:08:49;99611.34;;;5.81;63.38
50636;BME280;36598;46.054;11.130;2023-01-13T09:11:20;99607.06;;;5.27;65.22
50636;BME280;36598;46.054;11.130;2023-01-13T09:14:08;99601.91;;;4.99;65.71
50636;BME280;36598;46.054;11.130;2023-01-13T09:16:34;99608.53;;;5.21;65.34
50636;BME280;36598;46.054;11.130;2023-01-13T09:18:59;99610.78;;;5.68;63.86
50636;BME280;36598;46.054;11.130;2023-01-13T09:21:24;99612.91;;;5.78;62.92
50636;BME280;36598;46.054;11.130;2023-01-13T09:23:50;99612.78;;;5.98;62.77
50636;BME280;36598;46.054;11.130;2023-01-13T09:26:17;99604.97;;;6.03;62.03
50636;BME280;36598;46.054;11.130;2023-01-13T09:28:44;99606.44;;;5.94;62.28
50636;BME280;36598;46.054;11.130;2023-01-13T09:31:09;99604.13;;;6.30;61.63
50636;BME280;36598;46.054;11.130;2023-01-13T09:33:34;99611.00;;;6.16;60.97
50636;BME280;36598;46.054;11.130;2023-01-13T09:36:18;99616.31;;;5.98;61.66
50636;BME280;36598;46.054;11.130;2023-01-13T09:38:43;99612.63;;;6.21;61.26
50636;BME280;36598;46.054;11.130;2023-01-13T09:41:27;99613.41;;;5.88;61.61
50636;BME280;36598;46.054;11.130;2023-01-13T09:44:13;99619.66;;;6.15;61.40
50636;BME280;36598;46.054;11.130;2023-01-13T09:46:42;99625.69;;;5.67;62.46
50636;BME280;36598;46.054;11.130;2023-01-13T09:49:16;99621.16;;;5.82;62.79
50636;BME280;36598;46.054;11.130;2023-01-13T09:51:49;99614.66;;;5.64;63.37
50636;BME280;36598;46.054;11.130;2023-01-13T09:54:30;99610.16;;;5.82;62.90
50636;BME280;36598;46.054;11.130;2023-01-13T09:56:57;99607.69;;;5.70;63.27
50636;BME280;36598;46.054;11.130;2023-01-13T09:59:25;99599.56;;;5.81;63.53
50636;BME280;36598;46.054;11.130;2023-01-13T10:02:17;99604.41;;;5.91;63.58
50636;BME280;36598;46.054;11.130;2023-01-13T10:04:36;99612.06;;;6.05;63.31
50636;BME280;36598;46.054;11.130;2023-01-13T10:07:02;99608.59;;;5.81;63.54
50636;BME280;36598;46.054;11.130;2023-01-13T10:09:45;99594.75;;;5.70;63.81
50636;BME280;36598;46.054;11.130;2023-01-13T10:12:13;99587.41;;;5.82;62.94
50636;BME280;36598;46.054;11.130;2023-01-13T10:14:58;99579.56;;;5.80;64.08
50636;BME280;36598;46.054;11.130;2023-01-13T10:20:07;99567.00;;;5.79;63.18
50636;BME280;36598;46.054;11.130;2023-01-13T10:25:21;99554.63;;;5.92;62.33
50636;BME280;36598;46.054;11.130;2023-01-13T10:27:49;99555.91;;;6.02;63.13
50636;BME280;36598;46.054;11.130;2023-01-13T10:32:41;99552.09;;;6.10;62.37
50636;BME280;36598;46.054;11.130;2023-01-13T10:35:07;99550.22;;;6.18;61.05
50636;BME280;36598;46.054;11.130;2023-01-13T10:37:32;99542.50;;;6.31;61.35
50636;BME280;36598;46.054;11.130;2023-01-13T10:39:59;99538.03;;;6.56;60.68
50636;BME280;36598;46.054;11.130;2023-01-13T10:42:25;99527.16;;;6.74;59.51
50636;BME280;36598;46.054;11.130;2023-01-13T10:44:51;99520.81;;;6.66;59.59
50636;BME280;36598;46.054;11.130;2023-01-13T10:47:18;99525.59;;;6.76;59.06
50636;BME280;36598;46.054;11.130;2023-01-13T10:49:44;99527.84;;;6.60;60.06
50636;BME280;36598;46.054;11.130;2023-01-13T10:52:24;99511.91;;;6.84;59.07
50636;BME280;36598;46.054;11.130;2023-01-13T10:54:50;99503.59;;;6.76;59.63
50636;BME280;36598;46.054;11.130;2023-01-13T10:57:23;99503.06;;;7.08;58.38
50636;BME280;36598;46.054;11.130;2023-01-13T10:59:49;99517.06;;;6.89;58.90
50636;BME280;36598;46.054;11.130;2023-01-13T11:02:27;99513.75;;;7.20;58.09
50636;BME280;36598;46.054;11.130;2023-01-13T11:07:33;99507.47;;;7.27;57.05
50636;BME280;36598;46.054;11.130;2023-01-13T11:10:16;99505.28;;;7.61;56.10
50636;BME280;36598;46.054;11.130;2023-01-13T11:15:14;99499.34;;;7.52;55.75
50636;BME280;36598;46.054;11.130;2023-01-13T11:17:41;99496.00;;;7.14;56.48
50636;BME280;36598;46.054;11.130;2023-01-13T11:22:40;99492.06;;;8.06;55.01
50636;BME280;36598;46.054;11.130;2023-01-13T11:25:09;99478.63;;;7.94;55.25
50636;BME280;36598;46.054;11.130;2023-01-13T11:30:21;99459.38;;;8.08;53.47
50636;BME280;36598;46.054;11.130;2023-01-13T11:35:16;99470.97;;;7.41;55.34
50636;BME280;36598;46.054;11.130;2023-01-13T11:37:43;99479.63;;;7.39;55.87
50636;BME280;36598;46.054;11.130;2023-01-13T11:42:44;99465.84;;;7.39;56.23
50636;BME280;36598;46.054;11.130;2023-01-13T11:45:19;99467.03;;;7.35;56.42
50636;BME280;36598;46.054;11.130;2023-01-13T11:47:46;99466.88;;;7.10;56.64
50636;BME280;36598;46.054;11.130;2023-01-13T11:50:13;99465.34;;;7.19;56.90
50636;BME280;36598;46.054;11.130;2023-01-13T11:58:04;99453.22;;;7.24;57.01
50636;BME280;36598;46.054;11.130;2023-01-13T12:04:04;99438.47;;;6.88;57.40
50636;BME280;36598;46.054;11.130;2023-01-13T12:06:19;99436.69;;;6.58;58.30
50636;BME280;36598;46.054;11.130;2023-01-13T12:12:02;99441.66;;;6.97;57.31
50636;BME280;36598;46.054;11.130;2023-01-13T12:14:35;99437.84;;;7.19;57.34
50636;BME280;36598;46.054;11.130;2023-01-13T12:17:05;99433.97;;;7.31;57.16
50636;BME280;36598;46.054;11.130;2023-01-13T12:19:33;99429.72;;;7.48;56.43
50636;BME280;36598;46.054;11.130;2023-01-13T12:24:49;99415.97;;;7.51;56.53
50636;BME280;36598;46.054;11.130;2023-01-13T12:29:56;99408.22;;;8.36;54.47
50636;BME280;36598;46.054;11.130;2023-01-13T12:32:32;99396.41;;;9.66;51.60
50636;BME280;36598;46.054;11.130;2023-01-13T12:37:41;99386.25;;;10.94;47.91
50636;BME280;36598;46.054;11.130;2023-01-13T12:40:23;99372.25;;;11.39;47.44
50636;BME280;36598;46.054;11.130;2023-01-13T12:46:20;99364.72;;;11.09;47.28
50636;BME280;36598;46.054;11.130;2023-01-13T12:48:44;99367.94;;;11.03;47.00
50636;BME280;36598;46.054;11.130;2023-01-13T12:51:18;99365.41;;;11.47;46.31
50636;BME280;36598;46.054;11.130;2023-01-13T12:53:45;99369.78;;;11.48;44.74
50636;BME280;36598;46.054;11.130;2023-01-13T12:56:20;99363.66;;;11.60;43.83
50636;BME280;36598;46.054;11.130;2023-01-13T12:58:46;99359.00;;;11.81;43.79
50636;BME280;36598;46.054;11.130;2023-01-13T13:01:13;99350.03;;;12.00;43.52
50636;BME280;36598;46.054;11.130;2023-01-13T13:03:38;99349.06;;;11.87;43.73
50636;BME280;36598;46.054;11.130;2023-01-13T13:06:19;99336.94;;;12.00;43.41
50636;BME280;36598;46.054;11.130;2023-01-13T13:13:57;99335.25;;;11.79;42.91
50636;BME280;36598;46.054;11.130;2023-01-13T13:18:55;99324.38;;;10.77;43.55
50636;BME280;36598;46.054;11.130;2023-01-13T13:24:21;99322.66;;;10.87;44.07
50636;BME280;36598;46.054;11.130;2023-01-13T13:26:48;99326.47;;;10.66;45.43
50636;BME280;36598;46.054;11.130;2023-01-13T13:39:29;99328.44;;;10.99;43.98
50636;BME280;36598;46.054;11.130;2023-01-13T13:42:21;99326.97;;;10.91;44.17
50636;BME280;36598;46.054;11.130;2023-01-13T13:45:11;99317.78;;;10.98;44.73
50636;BME280;36598;46.054;11.130;2023-01-13T13:47:57;99311.47;;;10.97;44.78
50636;BME280;36598;46.054;11.130;2023-01-13T13:50:22;99300.38;;;10.67;44.52
50636;BME280;36598;46.054;11.130;2023-01-13T13:52:49;99286.28;;;10.54;43.96
50636;BME280;36598;46.054;11.130;2023-01-13T13:55:25;99280.31;;;10.14;45.90
50636;BME280;36598;46.054;11.130;2023-01-13T13:57:52;99281.84;;;10.22;45.57
50636;BME280;36598;46.054;11.130;2023-01-13T14:02:47;99289.00;;;10.20;47.07
50636;BME280;36598;46.054;11.130;2023-01-13T14:07:46;99281.75;;;10.37;47.19
50636;BME280;36598;46.054;11.130;2023-01-13T14:10:21;99279.66;;;10.78;45.80
50636;BME280;36598;46.054;11.130;2023-01-13T14:12:48;99296.34;;;10.75;47.46
50636;BME280;36598;46.054;11.130;2023-01-13T14:15:24;99297.50;;;10.40;47.12
50636;BME280;36598;46.054;11.130;2023-01-13T14:17:50;99308.31;;;10.61;46.50
50636;BME280;36598;46.054;11.130;2023-01-13T14:20:16;99303.41;;;10.80;45.61
50636;BME280;36598;46.054;11.130;2023-01-13T14:22:47;99309.47;;;10.22;47.59
50636;BME280;36598;46.054;11.130;2023-01-13T14:25:29;99304.59;;;9.96;48.14
50636;BME280;36598;46.054;11.130;2023-01-13T14:27:55;99293.63;;;10.34;46.38
50636;BME280;36598;46.054;11.130;2023-01-13T14:30:25;99301.97;;;9.82;46.02
50636;BME280;36598;46.054;11.130;2023-01-13T14:32:50;99296.91;;;9.69;45.63
50636;BME280;36598;46.054;11.130;2023-01-13T14:35:17;99289.34;;;9.21;46.74
50636;BME280;36598;46.054;11.130;2023-01-13T14:37:42;99285.97;;;8.82;48.20
50636;BME280;36598;46.054;11.130;2023-01-13T14:42:57;99275.84;;;8.57;48.53
50636;BME280;36598;46.054;11.130;2023-01-13T14:45:23;99266.44;;;8.26;50.26
50636;BME280;36598;46.054;11.130;2023-01-13T14:47:49;99268.06;;;7.98;51.03
50636;BME280;36598;46.054;11.130;2023-01-13T14:50:18;99263.34;;;7.60;52.09
50636;BME280;36598;46.054;11.130;2023-01-13T14:52:46;99256.66;;;7.78;51.37
50636;BME280;36598;46.054;11.130;2023-01-13T14:57:38;99275.16;;;7.74;51.99
50636;BME280;36598;46.054;11.130;2023-01-13T15:10:15;99304.16;;;7.15;53.84
50636;BME280;36598;46.054;11.130;2023-01-13T15:12:41;99310.38;;;6.90;54.92
50636;BME280;36598;46.054;11.130;2023-01-13T15:17:45;99310.84;;;7.07;55.90
50636;BME280;36598;46.054;11.130;2023-01-13T15:20:13;99299.44;;;7.08;55.85